sensor_id;sensor_type;location;lat;lon;timestamp;P1;durP1;ratioP1;P2;durP2;ratioP2
50281;SDS011;36176;51.506;10.272;2023-10-08T00:01:46;13.20;;;9.10;;
50281;SDS011;36176;51.506;10.272;2023-10-08T00:04:14;13.20;;;8.65;;
50281;SDS011;36176;51.506;10.272;2023-10-08T00:06:41;16.80;;;9.48;;
50281;SDS011;36176;51.506;10.272;2023-10-08T00:09:08;10.25;;;8.63;;
50281;SDS011;36176;51.506;10.272;2023-10-08T00:11:35;14.30;;;8.52;;
50281;SDS011;36176;51.506;10.272;2023-10-08T00:14:03;11.23;;;8.57;;
50281;SDS011;36176;51.506;10.272;2023-10-08T00:16:31;11.63;;;8.75;;
50281;SDS011;36176;51.506;10.272;2023-10-08T00:18:58;15.48;;;9.05;;
50281;SDS011;36176;51.506;10.272;2023-10-08T00:21:25;12.23;;;8.52;;
50281;SDS011;36176;51.506;10.272;2023-10-08T00:23:52;11.32;;;8.70;;
50281;SDS011;36176;51.506;10.272;2023-10-08T00:26:20;11.73;;;8.98;;
50281;SDS011;36176;51.506;10.272;2023-10-08T00:28:47;13.15;;;9.18;;
50281;SDS011;36176;51.506;10.272;2023-10-08T00:31:14;12.35;;;8.63;;
50281;SDS011;36176;51.506;10.272;2023-10-08T00:33:42;12.35;;;8.90;;
50281;SDS011;36176;51.506;10.272;2023-10-08T00:36:09;14.60;;;9.10;;
50281;SDS011;36176;51.506;10.272;2023-10-08T00:38:37;12.63;;;8.93;;
50281;SDS011;36176;51.506;10.272;2023-10-08T00:41:04;14.75;;;9.50;;
50281;SDS011;36176;51.506;10.272;2023-10-08T00:43:32;12.10;;;9.18;;
50281;SDS011;36176;51.506;10.272;2023-10-08T00:46:02;12.35;;;9.25;;
50281;SDS011;36176;51.506;10.272;2023-10-08T00:48:30;14.52;;;9.02;;
50281;SDS011;36176;51.506;10.272;2023-10-08T00:50:57;13.73;;;9.27;;
50281;SDS011;36176;51.506;10.272;2023-10-08T00:53:25;15.02;;;9.20;;
50281;SDS011;36176;51.506;10.272;2023-10-08T00:55:52;14.63;;;9.60;;
50281;SDS011;36176;51.506;10.272;2023-10-08T00:58:19;14.38;;;9.35;;
50281;SDS011;36176;51.506;10.272;2023-10-08T01:00:47;11.95;;;9.02;;
50281;SDS011;36176;51.506;10.272;2023-10-08T01:03:16;13.85;;;9.85;;
50281;SDS011;36176;51.506;10.272;2023-10-08T01:05:44;13.88;;;9.35;;
50281;SDS011;36176;51.506;10.272;2023-10-08T01:08:13;12.85;;;9.25;;
50281;SDS011;36176;51.506;10.272;2023-10-08T01:10:41;15.90;;;10.13;;
50281;SDS011;36176;51.506;10.272;2023-10-08T01:13:09;13.00;;;9.30;;
50281;SDS011;36176;51.506;10.272;2023-10-08T01:15:37;16.05;;;9.55;;
50281;SDS011;36176;51.506;10.272;2023-10-08T01:18:04;12.10;;;9.35;;
50281;SDS011;36176;51.506;10.272;2023-10-08T01:20:32;13.10;;;10.02;;
50281;SDS011;36176;51.506;10.272;2023-10-08T01:23:09;13.13;;;10.00;;
50281;SDS011;36176;51.506;10.272;2023-10-08T01:25:37;13.63;;;9.57;;
50281;SDS011;36176;51.506;10.272;2023-10-08T01:28:04;13.55;;;10.40;;
50281;SDS011;36176;51.506;10.272;2023-10-08T01:30:32;12.55;;;9.90;;
50281;SDS011;36176;51.506;10.272;2023-10-08T01:32:59;15.75;;;10.70;;
50281;SDS011;36176;51.506;10.272;2023-10-08T01:35:27;13.15;;;9.75;;
50281;SDS011;36176;51.506;10.272;2023-10-08T01:37:54;15.68;;;10.70;;
50281;SDS011;36176;51.506;10.272;2023-10-08T01:40:21;13.75;;;9.77;;
50281;SDS011;36176;51.506;10.272;2023-10-08T01:42:51;16.38;;;10.05;;
50281;SDS011;36176;51.506;10.272;2023-10-08T01:45:18;13.15;;;9.93;;
50281;SDS011;36176;51.506;10.272;2023-10-08T01:47:46;17.33;;;10.50;;
50281;SDS011;36176;51.506;10.272;2023-10-08T01:50:14;16.65;;;10.70;;
50281;SDS011;36176;51.506;10.272;2023-10-08T01:52:41;17.55;;;11.02;;
50281;SDS011;36176;51.506;10.272;2023-10-08T01:55:08;16.50;;;10.80;;
50281;SDS011;36176;51.506;10.272;2023-10-08T01:57:35;18.08;;;11.25;;
50281;SDS011;36176;51.506;10.272;2023-10-08T02:00:05;13.55;;;11.15;;
50281;SDS011;36176;51.506;10.272;2023-10-08T02:02:32;14.10;;;10.50;;
50281;SDS011;36176;51.506;10.272;2023-10-08T02:05:00;14.50;;;10.38;;
50281;SDS011;36176;51.506;10.272;2023-10-08T02:07:27;15.55;;;10.85;;
50281;SDS011;36176;51.506;10.272;2023-10-08T02:09:54;12.68;;;10.45;;
50281;SDS011;36176;51.506;10.272;2023-10-08T02:12:21;14.95;;;11.13;;
50281;SDS011;36176;51.506;10.272;2023-10-08T02:14:49;16.70;;;11.35;;
50281;SDS011;36176;51.506;10.272;2023-10-08T02:17:16;14.35;;;11.57;;
50281;SDS011;36176;51.506;10.272;2023-10-08T02:19:43;7.78;;;5.35;;
50281;SDS011;36176;51.506;10.272;2023-10-08T02:22:10;5.20;;;3.50;;
50281;SDS011;36176;51.506;10.272;2023-10-08T02:24:39;2.47;;;2.00;;
50281;SDS011;36176;51.506;10.272;2023-10-08T02:27:06;4.15;;;1.50;;
50281;SDS011;36176;51.506;10.272;2023-10-08T02:29:33;1.00;;;0.90;;
50281;SDS011;36176;51.506;10.272;2023-10-08T02:32:00;1.23;;;0.90;;
50281;SDS011;36176;51.506;10.272;2023-10-08T02:34:28;1.00;;;0.87;;
50281;SDS011;36176;51.506;10.272;2023-10-08T02:36:55;0.60;;;0.60;;
50281;SDS011;36176;51.506;10.272;2023-10-08T02:39:22;0.50;;;0.50;;
50281;SDS011;36176;51.506;10.272;2023-10-08T02:41:49;0.40;;;0.40;;
50281;SDS011;36176;51.506;10.272;2023-10-08T02:44:16;0.50;;;0.50;;
50281;SDS011;36176;51.506;10.272;2023-10-08T02:46:44;0.50;;;0.40;;
50281;SDS011;36176;51.506;10.272;2023-10-08T02:49:12;0.30;;;0.30;;
50281;SDS011;36176;51.506;10.272;2023-10-08T02:51:40;0.23;;;0.23;;
50281;SDS011;36176;51.506;10.272;2023-10-08T02:54:10;0.20;;;0.20;;
50281;SDS011;36176;51.506;10.272;2023-10-08T02:56:37;0.10;;;0.10;;
50281;SDS011;36176;51.506;10.272;2023-10-08T02:59:04;0.30;;;0.30;;
50281;SDS011;36176;51.506;10.272;2023-10-08T03:01:31;0.30;;;0.30;;
50281;SDS011;36176;51.506;10.272;2023-10-08T03:03:58;0.30;;;0.30;;
50281;SDS011;36176;51.506;10.272;2023-10-08T03:06:26;0.40;;;0.20;;
50281;SDS011;36176;51.506;10.272;2023-10-08T03:08:55;0.30;;;0.20;;
50281;SDS011;36176;51.506;10.272;2023-10-08T03:11:22;0.60;;;0.20;;
50281;SDS011;36176;51.506;10.272;2023-10-08T03:13:49;0.13;;;0.07;;
50281;SDS011;36176;51.506;10.272;2023-10-08T03:16:16;0.30;;;0.20;;
50281;SDS011;36176;51.506;10.272;2023-10-08T03:18:43;0.27;;;0.20;;
50281;SDS011;36176;51.506;10.272;2023-10-08T03:21:11;1.13;;;0.10;;
50281;SDS011;36176;51.506;10.272;2023-10-08T03:23:38;0.80;;;0.20;;
50281;SDS011;36176;51.506;10.272;2023-10-08T03:26:05;0.10;;;0.10;;
50281;SDS011;36176;51.506;10.272;2023-10-08T03:28:32;0.40;;;0.20;;
50281;SDS011;36176;51.506;10.272;2023-10-08T03:30:59;0.50;;;0.20;;
50281;SDS011;36176;51.506;10.272;2023-10-08T03:33:27;0.10;;;0.10;;
50281;SDS011;36176;51.506;10.272;2023-10-08T03:35:56;0.20;;;0.20;;
50281;SDS011;36176;51.506;10.272;2023-10-08T03:38:23;0.30;;;0.30;;
50281;SDS011;36176;51.506;10.272;2023-10-08T03:40:50;0.20;;;0.20;;
50281;SDS011;36176;51.506;10.272;2023-10-08T03:43:17;0.30;;;0.30;;
50281;SDS011;36176;51.506;10.272;2023-10-08T03:45:44;1.27;;;0.27;;
50281;SDS011;36176;51.506;10.272;2023-10-08T03:48:11;0.60;;;0.40;;
50281;SDS011;36176;51.506;10.272;2023-10-08T03:50:38;0.37;;;0.37;;
50281;SDS011;36176;51.506;10.272;2023-10-08T03:53:05;0.40;;;0.40;;
50281;SDS011;36176;51.506;10.272;2023-10-08T03:55:32;0.40;;;0.40;;
50281;SDS011;36176;51.506;10.272;2023-10-08T03:57:59;0.40;;;0.40;;
50281;SDS011;36176;51.506;10.272;2023-10-08T04:00:26;0.50;;;0.50;;
50281;SDS011;36176;51.506;10.272;2023-10-08T04:02:53;0.83;;;0.40;;
50281;SDS011;36176;51.506;10.272;2023-10-08T04:05:23;0.50;;;0.50;;
50281;SDS011;36176;51.506;10.272;2023-10-08T04:07:52;0.40;;;0.40;;
50281;SDS011;36176;51.506;10.272;2023-10-08T04:10:19;0.80;;;0.80;;
50281;SDS011;36176;51.506;10.272;2023-10-08T04:12:46;0.70;;;0.70;;
50281;SDS011;36176;51.506;10.272;2023-10-08T04:15:13;0.83;;;0.83;;
50281;SDS011;36176;51.506;10.272;2023-10-08T04:17:40;0.90;;;0.90;;
50281;SDS011;36176;51.506;10.272;2023-10-08T04:20:08;0.70;;;0.70;;
50281;SDS011;36176;51.506;10.272;2023-10-08T04:22:36;0.80;;;0.80;;
50281;SDS011;36176;51.506;10.272;2023-10-08T04:25:03;0.63;;;0.63;;
50281;SDS011;36176;51.506;10.272;2023-10-08T04:27:31;1.53;;;0.60;;
50281;SDS011;36176;51.506;10.272;2023-10-08T04:29:58;0.60;;;0.60;;
50281;SDS011;36176;51.506;10.272;2023-10-08T04:32:25;0.67;;;0.67;;
50281;SDS011;36176;51.506;10.272;2023-10-08T04:34:52;1.07;;;0.57;;
50281;SDS011;36176;51.506;10.272;2023-10-08T04:37:19;0.60;;;0.60;;
50281;SDS011;36176;51.506;10.272;2023-10-08T04:39:46;0.77;;;0.60;;
50281;SDS011;36176;51.506;10.272;2023-10-08T04:42:16;0.50;;;0.50;;
50281;SDS011;36176;51.506;10.272;2023-10-08T04:44:44;0.80;;;0.70;;
50281;SDS011;36176;51.506;10.272;2023-10-08T04:47:11;0.73;;;0.60;;
50281;SDS011;36176;51.506;10.272;2023-10-08T04:49:41;2.57;;;0.87;;
50281;SDS011;36176;51.506;10.272;2023-10-08T04:52:08;0.77;;;0.70;;
50281;SDS011;36176;51.506;10.272;2023-10-08T04:54:35;1.00;;;0.90;;
50281;SDS011;36176;51.506;10.272;2023-10-08T04:57:02;1.57;;;0.93;;
50281;SDS011;36176;51.506;10.272;2023-10-08T04:59:30;1.70;;;1.10;;
50281;SDS011;36176;51.506;10.272;2023-10-08T05:01:58;1.57;;;1.30;;
50281;SDS011;36176;51.506;10.272;2023-10-08T05:04:30;2.97;;;1.20;;
50281;SDS011;36176;51.506;10.272;2023-10-08T05:06:58;2.70;;;1.23;;
50281;SDS011;36176;51.506;10.272;2023-10-08T05:09:25;2.40;;;1.20;;
50281;SDS011;36176;51.506;10.272;2023-10-08T05:11:52;4.40;;;1.40;;
50281;SDS011;36176;51.506;10.272;2023-10-08T05:14:20;2.50;;;1.43;;
50281;SDS011;36176;51.506;10.272;2023-10-08T05:16:52;2.13;;;1.30;;
50281;SDS011;36176;51.506;10.272;2023-10-08T05:19:19;2.63;;;1.30;;
50281;SDS011;36176;51.506;10.272;2023-10-08T05:21:46;1.87;;;1.10;;
50281;SDS011;36176;51.506;10.272;2023-10-08T05:24:13;3.07;;;1.43;;
50281;SDS011;36176;51.506;10.272;2023-10-08T05:26:41;1.70;;;1.20;;
50281;SDS011;36176;51.506;10.272;2023-10-08T05:29:09;2.57;;;1.43;;
50281;SDS011;36176;51.506;10.272;2023-10-08T05:31:36;5.33;;;1.50;;
50281;SDS011;36176;51.506;10.272;2023-10-08T05:34:03;4.27;;;1.50;;
50281;SDS011;36176;51.506;10.272;2023-10-08T05:36:30;5.30;;;1.73;;
50281;SDS011;36176;51.506;10.272;2023-10-08T05:38:57;3.70;;;2.00;;
50281;SDS011;36176;51.506;10.272;2023-10-08T05:41:25;3.07;;;1.80;;
50281;SDS011;36176;51.506;10.272;2023-10-08T05:43:52;3.43;;;1.70;;
50281;SDS011;36176;51.506;10.272;2023-10-08T05:46:19;4.57;;;1.97;;
50281;SDS011;36176;51.506;10.272;2023-10-08T05:48:53;4.23;;;1.97;;
50281;SDS011;36176;51.506;10.272;2023-10-08T05:51:22;3.17;;;2.00;;
50281;SDS011;36176;51.506;10.272;2023-10-08T05:53:49;3.10;;;1.60;;
50281;SDS011;36176;51.506;10.272;2023-10-08T05:56:16;5.33;;;1.73;;
50281;SDS011;36176;51.506;10.272;2023-10-08T05:58:43;2.93;;;1.70;;
50281;SDS011;36176;51.506;10.272;2023-10-08T06:01:10;4.10;;;1.77;;
50281;SDS011;36176;51.506;10.272;2023-10-08T06:03:38;2.33;;;1.70;;
50281;SDS011;36176;51.506;10.272;2023-10-08T06:06:06;2.50;;;1.70;;
50281;SDS011;36176;51.506;10.272;2023-10-08T06:08:34;4.40;;;1.60;;
50281;SDS011;36176;51.506;10.272;2023-10-08T06:11:02;4.03;;;2.20;;
50281;SDS011;36176;51.506;10.272;2023-10-08T06:13:29;2.87;;;1.73;;
50281;SDS011;36176;51.506;10.272;2023-10-08T06:15:56;3.27;;;1.80;;
50281;SDS011;36176;51.506;10.272;2023-10-08T06:18:25;2.80;;;1.90;;
50281;SDS011;36176;51.506;10.272;2023-10-08T06:20:53;6.57;;;2.30;;
50281;SDS011;36176;51.506;10.272;2023-10-08T06:23:22;5.03;;;1.90;;
50281;SDS011;36176;51.506;10.272;2023-10-08T06:25:50;3.80;;;1.83;;
50281;SDS011;36176;51.506;10.272;2023-10-08T06:28:18;4.93;;;2.20;;
50281;SDS011;36176;51.506;10.272;2023-10-08T06:30:46;5.07;;;2.10;;
50281;SDS011;36176;51.506;10.272;2023-10-08T06:33:14;5.80;;;2.23;;
50281;SDS011;36176;51.506;10.272;2023-10-08T06:35:41;2.50;;;1.90;;
50281;SDS011;36176;51.506;10.272;2023-10-08T06:38:09;3.97;;;2.20;;
50281;SDS011;36176;51.506;10.272;2023-10-08T06:40:36;3.70;;;1.80;;
50281;SDS011;36176;51.506;10.272;2023-10-08T06:43:04;3.97;;;1.97;;
50281;SDS011;36176;51.506;10.272;2023-10-08T06:45:31;3.70;;;1.87;;
50281;SDS011;36176;51.506;10.272;2023-10-08T06:47:58;4.93;;;1.97;;
50281;SDS011;36176;51.506;10.272;2023-10-08T06:50:25;3.00;;;1.90;;
50281;SDS011;36176;51.506;10.272;2023-10-08T06:52:53;3.47;;;1.90;;
50281;SDS011;36176;51.506;10.272;2023-10-08T06:55:20;5.00;;;2.00;;
50281;SDS011;36176;51.506;10.272;2023-10-08T06:57:47;3.97;;;2.00;;
50281;SDS011;36176;51.506;10.272;2023-10-08T07:00:14;2.53;;;1.70;;
50281;SDS011;36176;51.506;10.272;2023-10-08T07:02:41;5.27;;;2.30;;
50281;SDS011;36176;51.506;10.272;2023-10-08T07:05:09;5.67;;;2.10;;
50281;SDS011;36176;51.506;10.272;2023-10-08T07:07:36;5.60;;;2.10;;
50281;SDS011;36176;51.506;10.272;2023-10-08T07:10:03;5.37;;;1.90;;
50281;SDS011;36176;51.506;10.272;2023-10-08T07:12:31;3.63;;;1.80;;
50281;SDS011;36176;51.506;10.272;2023-10-08T07:14:58;4.53;;;1.90;;
50281;SDS011;36176;51.506;10.272;2023-10-08T07:17:25;3.47;;;2.47;;
50281;SDS011;36176;51.506;10.272;2023-10-08T07:19:53;4.33;;;1.80;;
50281;SDS011;36176;51.506;10.272;2023-10-08T07:22:20;5.80;;;1.70;;
50281;SDS011;36176;51.506;10.272;2023-10-08T07:24:47;3.27;;;2.00;;
50281;SDS011;36176;51.506;10.272;2023-10-08T07:27:14;3.13;;;1.90;;
50281;SDS011;36176;51.506;10.272;2023-10-08T07:29:41;4.53;;;2.03;;
50281;SDS011;36176;51.506;10.272;2023-10-08T07:32:08;6.07;;;2.37;;
50281;SDS011;36176;51.506;10.272;2023-10-08T07:34:38;3.93;;;2.70;;
50281;SDS011;36176;51.506;10.272;2023-10-08T07:37:05;5.03;;;3.03;;
50281;SDS011;36176;51.506;10.272;2023-10-08T07:39:33;4.97;;;2.70;;
50281;SDS011;36176;51.506;10.272;2023-10-08T07:42:04;4.87;;;2.20;;
50281;SDS011;36176;51.506;10.272;2023-10-08T07:44:32;5.67;;;2.93;;
50281;SDS011;36176;51.506;10.272;2023-10-08T07:47:01;6.13;;;2.53;;
50281;SDS011;36176;51.506;10.272;2023-10-08T07:49:31;5.33;;;2.60;;
50281;SDS011;36176;51.506;10.272;2023-10-08T07:51:58;3.83;;;2.30;;
50281;SDS011;36176;51.506;10.272;2023-10-08T07:54:26;5.33;;;2.37;;
50281;SDS011;36176;51.506;10.272;2023-10-08T07:56:54;3.47;;;2.17;;
50281;SDS011;36176;51.506;10.272;2023-10-08T07:59:22;5.27;;;2.50;;
50281;SDS011;36176;51.506;10.272;2023-10-08T08:01:49;4.77;;;2.20;;
50281;SDS011;36176;51.506;10.272;2023-10-08T08:04:17;2.97;;;1.80;;
50281;SDS011;36176;51.506;10.272;2023-10-08T08:06:44;2.60;;;1.90;;
50281;SDS011;36176;51.506;10.272;2023-10-08T08:09:11;6.00;;;3.23;;
50281;SDS011;36176;51.506;10.272;2023-10-08T08:11:38;4.63;;;2.20;;
50281;SDS011;36176;51.506;10.272;2023-10-08T08:14:05;4.43;;;1.90;;
50281;SDS011;36176;51.506;10.272;2023-10-08T08:16:32;4.43;;;2.70;;
50281;SDS011;36176;51.506;10.272;2023-10-08T08:19:00;4.37;;;2.20;;
50281;SDS011;36176;51.506;10.272;2023-10-08T08:21:27;4.20;;;2.07;;
50281;SDS011;36176;51.506;10.272;2023-10-08T08:23:54;4.00;;;2.27;;
50281;SDS011;36176;51.506;10.272;2023-10-08T08:26:23;9.43;;;8.57;;
50281;SDS011;36176;51.506;10.272;2023-10-08T08:28:50;3.57;;;2.40;;
50281;SDS011;36176;51.506;10.272;2023-10-08T08:31:18;4.27;;;2.43;;
50281;SDS011;36176;51.506;10.272;2023-10-08T08:33:45;2.93;;;2.00;;
50281;SDS011;36176;51.506;10.272;2023-10-08T08:36:12;4.80;;;2.00;;
50281;SDS011;36176;51.506;10.272;2023-10-08T08:38:39;5.97;;;1.90;;
50281;SDS011;36176;51.506;10.272;2023-10-08T08:41:06;2.03;;;1.53;;
50281;SDS011;36176;51.506;10.272;2023-10-08T08:43:34;30.30;;;27.00;;
50281;SDS011;36176;51.506;10.272;2023-10-08T08:46:02;14.03;;;12.63;;
50281;SDS011;36176;51.506;10.272;2023-10-08T08:48:30;3.40;;;1.60;;
50281;SDS011;36176;51.506;10.272;2023-10-08T08:51:00;3.57;;;1.40;;
50281;SDS011;36176;51.506;10.272;2023-10-08T08:53:28;1.87;;;1.40;;
50281;SDS011;36176;51.506;10.272;2023-10-08T08:55:55;2.13;;;1.37;;
50281;SDS011;36176;51.506;10.272;2023-10-08T08:58:25;3.57;;;1.40;;
50281;SDS011;36176;51.506;10.272;2023-10-08T09:00:52;2.80;;;1.47;;
50281;SDS011;36176;51.506;10.272;2023-10-08T09:03:19;4.30;;;1.57;;
50281;SDS011;36176;51.506;10.272;2023-10-08T09:05:47;3.10;;;1.33;;
50281;SDS011;36176;51.506;10.272;2023-10-08T09:08:14;2.70;;;1.40;;
50281;SDS011;36176;51.506;10.272;2023-10-08T09:10:41;2.17;;;1.30;;
50281;SDS011;36176;51.506;10.272;2023-10-08T09:13:10;3.63;;;2.07;;
50281;SDS011;36176;51.506;10.272;2023-10-08T09:15:37;2.47;;;1.97;;
50281;SDS011;36176;51.506;10.272;2023-10-08T09:18:04;3.87;;;1.83;;
50281;SDS011;36176;51.506;10.272;2023-10-08T09:20:36;3.50;;;1.80;;
50281;SDS011;36176;51.506;10.272;2023-10-08T09:23:11;3.83;;;2.10;;
50281;SDS011;36176;51.506;10.272;2023-10-08T09:25:41;3.47;;;1.83;;
50281;SDS011;36176;51.506;10.272;2023-10-08T09:28:09;2.43;;;2.07;;
50281;SDS011;36176;51.506;10.272;2023-10-08T09:30:37;5.50;;;3.27;;
50281;SDS011;36176;51.506;10.272;2023-10-08T09:33:07;2.50;;;1.70;;
50281;SDS011;36176;51.506;10.272;2023-10-08T09:35:35;3.37;;;2.40;;
50281;SDS011;36176;51.506;10.272;2023-10-08T09:38:03;3.40;;;1.80;;
50281;SDS011;36176;51.506;10.272;2023-10-08T09:40:32;2.73;;;1.70;;
50281;SDS011;36176;51.506;10.272;2023-10-08T09:43:01;19.53;;;11.17;;
50281;SDS011;36176;51.506;10.272;2023-10-08T09:45:30;4.47;;;2.63;;
50281;SDS011;36176;51.506;10.272;2023-10-08T09:47:57;6.87;;;4.53;;
50281;SDS011;36176;51.506;10.272;2023-10-08T09:50:28;4.23;;;3.13;;
50281;SDS011;36176;51.506;10.272;2023-10-08T09:55:37;10.33;;;8.97;;
50281;SDS011;36176;51.506;10.272;2023-10-08T09:58:10;3.37;;;2.30;;
50281;SDS011;36176;51.506;10.272;2023-10-08T10:00:39;6.30;;;3.30;;
50281;SDS011;36176;51.506;10.272;2023-10-08T10:03:07;4.50;;;1.80;;
50281;SDS011;36176;51.506;10.272;2023-10-08T10:05:36;4.43;;;3.50;;
50281;SDS011;36176;51.506;10.272;2023-10-08T10:08:03;9.50;;;6.60;;
50281;SDS011;36176;51.506;10.272;2023-10-08T10:10:31;23.90;;;18.13;;
50281;SDS011;36176;51.506;10.272;2023-10-08T10:13:02;4.47;;;2.53;;
50281;SDS011;36176;51.506;10.272;2023-10-08T10:15:34;13.97;;;8.90;;
50281;SDS011;36176;51.506;10.272;2023-10-08T10:18:12;21.13;;;17.77;;
50281;SDS011;36176;51.506;10.272;2023-10-08T10:20:45;3.83;;;2.80;;
50281;SDS011;36176;51.506;10.272;2023-10-08T10:26:04;3.83;;;2.47;;
50281;SDS011;36176;51.506;10.272;2023-10-08T10:28:31;6.13;;;4.90;;
50281;SDS011;36176;51.506;10.272;2023-10-08T10:30:59;7.30;;;6.60;;
50281;SDS011;36176;51.506;10.272;2023-10-08T10:33:30;2.87;;;1.83;;
50281;SDS011;36176;51.506;10.272;2023-10-08T10:36:00;3.30;;;1.57;;
50281;SDS011;36176;51.506;10.272;2023-10-08T10:38:28;2.10;;;1.60;;
50281;SDS011;36176;51.506;10.272;2023-10-08T10:40:56;3.20;;;1.80;;
50281;SDS011;36176;51.506;10.272;2023-10-08T10:43:24;3.77;;;1.80;;
50281;SDS011;36176;51.506;10.272;2023-10-08T10:45:52;4.57;;;2.10;;
50281;SDS011;36176;51.506;10.272;2023-10-08T10:48:19;5.10;;;2.17;;
50281;SDS011;36176;51.506;10.272;2023-10-08T10:50:47;2.97;;;1.80;;
50281;SDS011;36176;51.506;10.272;2023-10-08T10:53:19;3.90;;;1.90;;
50281;SDS011;36176;51.506;10.272;2023-10-08T10:55:46;1.93;;;1.53;;
50281;SDS011;36176;51.506;10.272;2023-10-08T10:58:13;4.53;;;1.67;;
50281;SDS011;36176;51.506;10.272;2023-10-08T11:00:43;3.30;;;1.43;;
50281;SDS011;36176;51.506;10.272;2023-10-08T11:03:11;1.57;;;1.40;;
50281;SDS011;36176;51.506;10.272;2023-10-08T11:05:38;4.13;;;1.70;;
50281;SDS011;36176;51.506;10.272;2023-10-08T11:08:06;2.45;;;1.63;;
50281;SDS011;36176;51.506;10.272;2023-10-08T11:10:37;3.33;;;1.53;;
50281;SDS011;36176;51.506;10.272;2023-10-08T11:13:05;3.08;;;1.65;;
50281;SDS011;36176;51.506;10.272;2023-10-08T11:15:33;1.85;;;1.30;;
50281;SDS011;36176;51.506;10.272;2023-10-08T11:18:00;2.15;;;1.40;;
50281;SDS011;36176;51.506;10.272;2023-10-08T11:20:27;2.90;;;1.40;;
50281;SDS011;36176;51.506;10.272;2023-10-08T11:22:54;2.55;;;1.40;;
50281;SDS011;36176;51.506;10.272;2023-10-08T11:25:25;3.22;;;1.70;;
50281;SDS011;36176;51.506;10.272;2023-10-08T11:27:53;3.42;;;1.67;;
50281;SDS011;36176;51.506;10.272;2023-10-08T11:30:20;4.18;;;1.42;;
50281;SDS011;36176;51.506;10.272;2023-10-08T11:32:48;3.42;;;1.67;;
50281;SDS011;36176;51.506;10.272;2023-10-08T11:35:15;2.55;;;1.60;;
50281;SDS011;36176;51.506;10.272;2023-10-08T11:37:46;3.50;;;1.50;;
50281;SDS011;36176;51.506;10.272;2023-10-08T11:40:24;2.30;;;1.40;;
50281;SDS011;36176;51.506;10.272;2023-10-08T11:42:51;2.45;;;1.70;;
50281;SDS011;36176;51.506;10.272;2023-10-08T11:45:19;2.92;;;1.60;;
50281;SDS011;36176;51.506;10.272;2023-10-08T11:47:46;2.60;;;1.42;;
50281;SDS011;36176;51.506;10.272;2023-10-08T11:50:14;3.58;;;1.55;;
50281;SDS011;36176;51.506;10.272;2023-10-08T11:52:42;3.05;;;1.40;;
50281;SDS011;36176;51.506;10.272;2023-10-08T11:55:09;3.67;;;1.63;;
50281;SDS011;36176;51.506;10.272;2023-10-08T11:57:37;2.67;;;1.60;;
50281;SDS011;36176;51.506;10.272;2023-10-08T12:00:04;2.97;;;1.60;;
50281;SDS011;36176;51.506;10.272;2023-10-08T12:02:40;2.33;;;1.45;;
50281;SDS011;36176;51.506;10.272;2023-10-08T12:05:07;2.70;;;1.70;;
50281;SDS011;36176;51.506;10.272;2023-10-08T12:07:35;3.40;;;1.50;;
50281;SDS011;36176;51.506;10.272;2023-10-08T12:10:02;4.35;;;2.00;;
50281;SDS011;36176;51.506;10.272;2023-10-08T12:12:29;4.82;;;1.60;;
50281;SDS011;36176;51.506;10.272;2023-10-08T12:14:56;5.80;;;3.50;;
50281;SDS011;36176;51.506;10.272;2023-10-08T12:17:23;3.70;;;2.30;;
50281;SDS011;36176;51.506;10.272;2023-10-08T12:19:51;3.53;;;1.70;;
50281;SDS011;36176;51.506;10.272;2023-10-08T12:22:18;6.10;;;3.25;;
50281;SDS011;36176;51.506;10.272;2023-10-08T12:24:45;4.05;;;2.80;;
50281;SDS011;36176;51.506;10.272;2023-10-08T12:27:12;3.00;;;2.10;;
50281;SDS011;36176;51.506;10.272;2023-10-08T12:29:39;3.13;;;1.50;;
50281;SDS011;36176;51.506;10.272;2023-10-08T12:32:07;3.80;;;1.70;;
50281;SDS011;36176;51.506;10.272;2023-10-08T12:34:34;4.03;;;2.60;;
50281;SDS011;36176;51.506;10.272;2023-10-08T12:37:01;3.67;;;1.83;;
50281;SDS011;36176;51.506;10.272;2023-10-08T12:39:28;3.13;;;1.52;;
50281;SDS011;36176;51.506;10.272;2023-10-08T12:41:55;3.55;;;1.63;;
50281;SDS011;36176;51.506;10.272;2023-10-08T12:44:23;3.10;;;1.42;;
50281;SDS011;36176;51.506;10.272;2023-10-08T12:46:50;2.50;;;1.70;;
50281;SDS011;36176;51.506;10.272;2023-10-08T12:49:17;3.80;;;1.60;;
50281;SDS011;36176;51.506;10.272;2023-10-08T12:51:44;3.78;;;2.38;;
50281;SDS011;36176;51.506;10.272;2023-10-08T12:54:11;3.28;;;1.55;;
50281;SDS011;36176;51.506;10.272;2023-10-08T12:56:39;3.47;;;1.58;;
50281;SDS011;36176;51.506;10.272;2023-10-08T12:59:07;2.75;;;1.48;;
50281;SDS011;36176;51.506;10.272;2023-10-08T13:01:34;3.92;;;1.55;;
50281;SDS011;36176;51.506;10.272;2023-10-08T13:04:02;2.58;;;1.48;;
50281;SDS011;36176;51.506;10.272;2023-10-08T13:06:30;4.85;;;1.50;;
50281;SDS011;36176;51.506;10.272;2023-10-08T13:08:57;4.40;;;2.25;;
50281;SDS011;36176;51.506;10.272;2023-10-08T13:11:27;3.05;;;1.60;;
50281;SDS011;36176;51.506;10.272;2023-10-08T13:13:55;4.27;;;1.37;;
50281;SDS011;36176;51.506;10.272;2023-10-08T13:16:27;7.38;;;4.15;;
50281;SDS011;36176;51.506;10.272;2023-10-08T13:18:55;9.98;;;6.18;;
50281;SDS011;36176;51.506;10.272;2023-10-08T13:21:22;9.50;;;8.10;;
50281;SDS011;36176;51.506;10.272;2023-10-08T13:23:49;5.53;;;2.90;;
50281;SDS011;36176;51.506;10.272;2023-10-08T13:26:16;6.47;;;4.57;;
50281;SDS011;36176;51.506;10.272;2023-10-08T13:28:43;3.83;;;2.00;;
50281;SDS011;36176;51.506;10.272;2023-10-08T13:31:11;5.32;;;4.38;;
50281;SDS011;36176;51.506;10.272;2023-10-08T13:33:39;3.27;;;1.83;;
50281;SDS011;36176;51.506;10.272;2023-10-08T13:36:07;4.32;;;1.65;;
50281;SDS011;36176;51.506;10.272;2023-10-08T13:38:44;3.17;;;1.40;;
50281;SDS011;36176;51.506;10.272;2023-10-08T13:41:12;3.70;;;1.50;;
50281;SDS011;36176;51.506;10.272;2023-10-08T13:43:40;5.23;;;2.00;;
50281;SDS011;36176;51.506;10.272;2023-10-08T13:46:08;3.03;;;1.63;;
50281;SDS011;36176;51.506;10.272;2023-10-08T13:48:35;4.70;;;1.70;;
50281;SDS011;36176;51.506;10.272;2023-10-08T13:51:03;3.90;;;1.95;;
50281;SDS011;36176;51.506;10.272;2023-10-08T13:53:33;2.47;;;1.70;;
50281;SDS011;36176;51.506;10.272;2023-10-08T13:56:00;3.83;;;1.90;;
50281;SDS011;36176;51.506;10.272;2023-10-08T13:58:28;2.60;;;2.10;;
50281;SDS011;36176;51.506;10.272;2023-10-08T14:00:57;2.50;;;1.70;;
50281;SDS011;36176;51.506;10.272;2023-10-08T14:03:24;3.15;;;1.60;;
50281;SDS011;36176;51.506;10.272;2023-10-08T14:05:51;5.45;;;3.03;;
50281;SDS011;36176;51.506;10.272;2023-10-08T14:08:19;2.07;;;1.57;;
50281;SDS011;36176;51.506;10.272;2023-10-08T14:10:46;3.00;;;1.70;;
50281;SDS011;36176;51.506;10.272;2023-10-08T14:13:13;4.38;;;2.00;;
50281;SDS011;36176;51.506;10.272;2023-10-08T14:15:41;3.63;;;2.13;;
50281;SDS011;36176;51.506;10.272;2023-10-08T14:18:09;3.87;;;2.03;;
50281;SDS011;36176;51.506;10.272;2023-10-08T14:20:37;3.30;;;1.50;;
50281;SDS011;36176;51.506;10.272;2023-10-08T14:23:05;3.83;;;2.70;;
50281;SDS011;36176;51.506;10.272;2023-10-08T14:25:32;7.10;;;5.20;;
50281;SDS011;36176;51.506;10.272;2023-10-08T14:28:00;5.20;;;3.00;;
50281;SDS011;36176;51.506;10.272;2023-10-08T14:30:27;12.00;;;9.03;;
50281;SDS011;36176;51.506;10.272;2023-10-08T14:32:55;5.63;;;2.60;;
50281;SDS011;36176;51.506;10.272;2023-10-08T14:35:22;6.40;;;4.30;;
50281;SDS011;36176;51.506;10.272;2023-10-08T14:37:49;11.97;;;9.70;;
50281;SDS011;36176;51.506;10.272;2023-10-08T14:40:17;6.03;;;3.80;;